createdAt,value
2023-03-20T00:00:19.302Z,4.31
2023-03-20T00:03:05.846Z,4.28
2023-03-20T00:05:32.141Z,4.27
2023-03-20T00:07:58.752Z,4.26
2023-03-20T00:10:29.101Z,4.24
2023-03-20T00:12:55.796Z,4.22
2023-03-20T00:15:24.127Z,4.19
2023-03-20T00:17:50.424Z,4.16
2023-03-20T00:20:17.112Z,4.15
2023-03-20T00:22:43.466Z,4.12
2023-03-20T00:25:13.809Z,4.10
2023-03-20T00:27:40.590Z,4.07
2023-03-20T00:30:24.815Z,4.06
2023-03-20T00:32:52.361Z,4.06
2023-03-20T00:35:26.432Z,4.07
2023-03-20T00:37:53.488Z,4.09
2023-03-20T00:40:20.552Z,4.10
2023-03-20T00:42:50.325Z,4.10
2023-03-20T00:45:18.203Z,4.10
2023-03-20T00:47:45.366Z,4.08
2023-03-20T00:50:22.421Z,4.07
2023-03-20T00:52:49.953Z,4.09
2023-03-20T00:55:17.405Z,4.11
2023-03-20T00:57:47.337Z,4.13
2023-03-20T01:00:22.150Z,4.17
2023-03-20T01:02:49.175Z,4.20
2023-03-20T01:05:15.700Z,4.22
2023-03-20T01:07:41.952Z,4.24
2023-03-20T01:10:09.379Z,4.25
2023-03-20T01:12:35.740Z,4.25
2023-03-20T01:15:02.239Z,4.24
2023-03-20T01:17:28.773Z,4.22
2023-03-20T01:19:55.063Z,4.21
2023-03-20T01:22:21.431Z,4.19
2023-03-20T01:24:47.981Z,4.15
2023-03-20T01:27:16.182Z,4.12
2023-03-20T01:29:43.053Z,4.07
2023-03-20T01:32:17.376Z,4.04
2023-03-20T01:34:46.149Z,4.02
2023-03-20T01:37:16.442Z,4.02
2023-03-20T01:39:42.958Z,4.02
2023-03-20T01:42:13.394Z,4.03
2023-03-20T01:44:42.214Z,4.03
2023-03-20T01:47:16.545Z,4.04
2023-03-20T01:50:02.371Z,4.05
2023-03-20T01:52:28.765Z,4.08
2023-03-20T01:54:55.554Z,4.17
2023-03-20T01:57:23.453Z,4.29
2023-03-20T02:00:16.305Z,4.40
2023-03-20T02:02:44.403Z,4.55
2023-03-20T02:05:13.539Z,4.69
2023-03-20T02:07:40.030Z,4.79
2023-03-20T02:10:11.485Z,4.86
2023-03-20T02:12:44.555Z,4.88
2023-03-20T02:15:14.125Z,4.88
2023-03-20T02:18:06.347Z,4.88
2023-03-20T02:20:50.628Z,4.85
2023-03-20T02:23:34.298Z,4.83
2023-03-20T02:26:06.962Z,4.82
2023-03-20T02:28:33.292Z,4.84
2023-03-20T02:31:26.505Z,4.89
2023-03-20T02:33:56.583Z,4.95
2023-03-20T02:36:25.972Z,5.00
2023-03-20T02:38:52.332Z,5.07
2023-03-20T02:41:37.651Z,5.10
2023-03-20T02:44:08.064Z,5.13
2023-03-20T02:46:39.846Z,5.11
2023-03-20T02:49:16.776Z,5.06
2023-03-20T02:51:55.585Z,5.00
2023-03-20T02:54:25.023Z,4.92
2023-03-20T02:56:52.959Z,4.85
2023-03-20T02:59:35.641Z,4.80
2023-03-20T03:02:05.357Z,4.75
2023-03-20T03:04:34.619Z,4.70
2023-03-20T03:07:01.954Z,4.67
2023-03-20T03:09:33.641Z,4.65
2023-03-20T03:12:02.035Z,4.65
2023-03-20T03:14:44.370Z,4.66
2023-03-20T03:17:14.571Z,4.68
2023-03-20T03:19:45.401Z,4.72
2023-03-20T03:22:11.901Z,4.76
2023-03-20T03:24:42.333Z,4.82
2023-03-20T03:27:15.770Z,4.86
2023-03-20T03:29:42.833Z,4.90
2023-03-20T03:32:21.611Z,4.93
2023-03-20T03:34:48.072Z,4.97
2023-03-20T03:37:26.168Z,5.02
2023-03-20T03:40:11.145Z,5.07
2023-03-20T03:43:16.344Z,5.11
2023-03-20T03:45:52.857Z,5.15
2023-03-20T03:48:23.259Z,5.18
2023-03-20T03:50:54.113Z,5.20
2023-03-20T03:53:24.562Z,5.22
2023-03-20T03:55:52.887Z,5.24
2023-03-20T03:58:29.002Z,5.25
2023-03-20T04:00:57.133Z,5.23
2023-03-20T04:03:25.017Z,5.22
2023-03-20T04:05:53.892Z,5.21
2023-03-20T04:08:20.225Z,5.21
2023-03-20T04:10:46.616Z,5.21
2023-03-20T04:13:13.245Z,5.20
2023-03-20T04:15:39.798Z,5.20
2023-03-20T04:18:08.628Z,5.20
2023-03-20T04:20:38.045Z,5.20
2023-03-20T04:23:05.206Z,5.21
2023-03-20T04:25:31.560Z,5.22
2023-03-20T04:27:57.851Z,5.25
2023-03-20T04:30:42.177Z,5.26
2023-03-20T04:33:44.197Z,5.26
2023-03-20T04:36:47.351Z,5.23
2023-03-20T04:39:15.269Z,5.22
2023-03-20T04:41:41.680Z,5.19
2023-03-20T04:44:08.619Z,5.17
2023-03-20T04:46:35.306Z,5.16
2023-03-20T04:49:05.569Z,5.16
2023-03-20T04:51:32.136Z,5.17
2023-03-20T04:53:58.463Z,5.18
2023-03-20T04:56:24.763Z,5.18
2023-03-20T04:58:53.741Z,5.19
2023-03-20T05:01:21.618Z,5.20
2023-03-20T05:03:48.258Z,5.22
2023-03-20T05:06:14.800Z,5.24
2023-03-20T05:08:43.312Z,5.25
2023-03-20T05:11:10.234Z,5.26
2023-03-20T05:14:02.956Z,5.29
2023-03-20T05:16:43.567Z,5.33
2023-03-20T05:19:19.085Z,5.37
2023-03-20T05:21:53.450Z,5.41
2023-03-20T05:24:47.049Z,5.47
2023-03-20T05:27:36.232Z,5.53
2023-03-20T05:30:21.446Z,5.59
2023-03-20T05:33:08.434Z,5.64
2023-03-20T05:35:53.998Z,5.69
2023-03-20T05:38:40.554Z,5.73
2023-03-20T05:41:29.739Z,5.77
2023-03-20T05:44:18.491Z,5.78
2023-03-20T05:46:56.309Z,5.77
2023-03-20T05:49:52.181Z,5.76
2023-03-20T05:52:24.905Z,5.84
2023-03-20T05:55:11.449Z,5.96
2023-03-20T05:57:58.235Z,6.07
2023-03-20T06:00:41.568Z,6.13
2023-03-20T06:03:27.618Z,6.20
2023-03-20T06:05:58.900Z,6.29
2023-03-20T06:08:25.262Z,6.39
2023-03-20T06:10:51.963Z,6.55
2023-03-20T06:13:18.555Z,6.76
2023-03-20T06:15:44.972Z,6.99
2023-03-20T06:18:14.955Z,7.23
2023-03-20T06:20:41.345Z,7.48
2023-03-20T06:23:08.164Z,7.71
2023-03-20T06:25:34.779Z,7.96
2023-03-20T06:28:01.688Z,8.24
2023-03-20T06:30:28.177Z,8.52
2023-03-20T06:32:54.714Z,8.78
2023-03-20T06:35:22.072Z,9.00
2023-03-20T06:37:49.431Z,9.22
2023-03-20T06:40:20.432Z,9.43
2023-03-20T06:42:46.917Z,9.63
2023-03-20T06:45:13.835Z,9.76
2023-03-20T06:47:52.319Z,9.86
2023-03-20T06:50:19.445Z,9.96
2023-03-20T06:52:46.069Z,10.10
2023-03-20T06:55:38.737Z,10.25
2023-03-20T06:58:05.452Z,10.35
2023-03-20T07:00:32.385Z,10.42
2023-03-20T07:03:02.381Z,10.48
2023-03-20T07:05:29.270Z,10.55
2023-03-20T07:07:56.068Z,10.62
2023-03-20T07:10:22.384Z,10.67
2023-03-20T07:12:51.156Z,10.69
2023-03-20T07:15:18.142Z,10.68
2023-03-20T07:17:44.992Z,10.69
2023-03-20T07:20:11.944Z,10.70
2023-03-20T07:22:39.130Z,10.72
2023-03-20T07:25:16.399Z,10.79
2023-03-20T07:27:42.886Z,10.89
2023-03-20T07:30:10.132Z,10.97
2023-03-20T07:32:38.925Z,11.04
2023-03-20T07:35:05.546Z,11.15
2023-03-20T07:37:32.436Z,11.27
2023-03-20T07:40:03.502Z,11.36
2023-03-20T07:42:32.166Z,11.39
2023-03-20T07:45:05.812Z,11.35
2023-03-20T07:47:32.158Z,11.29
2023-03-20T07:49:58.789Z,11.30
2023-03-20T07:52:25.315Z,11.39
2023-03-20T07:54:52.832Z,11.50
2023-03-20T07:57:20.241Z,11.65
2023-03-20T07:59:47.045Z,11.80
2023-03-20T08:02:14.597Z,11.98
2023-03-20T08:04:41.102Z,12.16
2023-03-20T08:07:07.503Z,12.28
2023-03-20T08:09:34.234Z,12.37
2023-03-20T08:12:00.567Z,12.46
2023-03-20T08:14:26.953Z,12.64
2023-03-20T08:17:10.227Z,12.91
2023-03-20T08:19:39.648Z,13.06
2023-03-20T08:22:05.940Z,13.15
2023-03-20T08:24:32.235Z,13.22
2023-03-20T08:26:58.716Z,13.28
2023-03-20T08:29:25.386Z,13.38
2023-03-20T08:31:51.790Z,13.43
2023-03-20T08:37:36.049Z,13.24
2023-03-20T08:40:02.932Z,13.15
2023-03-20T08:42:29.576Z,13.11
2023-03-20T08:44:56.035Z,13.08
2023-03-20T08:47:22.552Z,13.03
2023-03-20T08:49:49.169Z,13.02
2023-03-20T08:52:15.779Z,13.09
2023-03-20T08:54:42.233Z,13.23
2023-03-20T08:57:08.819Z,13.37
2023-03-20T08:59:35.353Z,13.36
2023-03-20T09:02:01.895Z,13.27
2023-03-20T09:04:28.571Z,13.19
2023-03-20T09:06:55.164Z,13.15
2023-03-20T09:09:21.767Z,13.14
2023-03-20T09:11:48.419Z,13.06
2023-03-20T09:14:15.199Z,13.08
2023-03-20T09:16:41.682Z,13.11
2023-03-20T09:19:08.540Z,13.13
2023-03-20T09:21:47.200Z,13.15
2023-03-20T09:24:38.173Z,13.18
2023-03-20T09:27:09.020Z,13.23
2023-03-20T09:29:35.495Z,13.31
2023-03-20T09:32:02.963Z,13.39
2023-03-20T09:34:33.107Z,13.48
2023-03-20T09:36:59.638Z,13.46
2023-03-20T09:42:28.357Z,13.34
2023-03-20T09:45:18.741Z,13.17
2023-03-20T09:47:46.329Z,13.06
2023-03-20T09:50:22.492Z,12.98
2023-03-20T09:52:56.487Z,12.94
2023-03-20T09:55:43.965Z,12.89
2023-03-20T09:58:13.279Z,12.79
2023-03-20T10:00:51.419Z,12.65
2023-03-20T10:03:43.142Z,12.51
2023-03-20T10:06:18.677Z,12.38
2023-03-20T10:08:47.490Z,12.25
2023-03-20T10:11:26.726Z,12.11
2023-03-20T10:13:58.863Z,11.98
2023-03-20T10:16:50.665Z,11.89
2023-03-20T10:19:27.217Z,11.87
2023-03-20T10:22:01.000Z,11.90
2023-03-20T10:24:30.364Z,11.99
2023-03-20T10:27:01.663Z,12.14
2023-03-20T10:29:31.167Z,12.32
2023-03-20T10:32:04.114Z,12.49
2023-03-20T10:34:46.347Z,12.59
2023-03-20T10:37:21.979Z,12.66
2023-03-20T10:40:18.261Z,12.73
2023-03-20T10:42:46.544Z,12.76
2023-03-20T10:45:28.118Z,12.78
2023-03-20T10:47:56.169Z,12.73
2023-03-20T10:50:32.793Z,12.62
2023-03-20T10:53:01.708Z,12.54
2023-03-20T10:55:31.069Z,12.51
2023-03-20T10:58:01.572Z,12.44
2023-03-20T11:00:28.098Z,12.40
2023-03-20T11:06:09.277Z,12.26
2023-03-20T11:26:42.111Z,12.85
2023-03-20T11:29:17.559Z,12.95
2023-03-20T11:31:45.153Z,13.14
2023-03-20T11:34:15.437Z,13.35
2023-03-20T11:37:12.243Z,13.59
2023-03-20T11:39:53.168Z,13.86
2023-03-20T11:42:27.551Z,14.12
2023-03-20T11:45:15.828Z,14.40
2023-03-20T11:47:54.656Z,14.61
2023-03-20T11:51:04.241Z,14.54
2023-03-20T11:53:48.240Z,14.34
2023-03-20T11:57:17.251Z,14.29
2023-03-20T12:00:26.759Z,14.27
2023-03-20T12:03:25.677Z,14.29
2023-03-20T12:05:58.995Z,14.27
2023-03-20T12:08:26.816Z,14.26
2023-03-20T12:10:54.964Z,14.28
2023-03-20T12:13:24.562Z,14.34
2023-03-20T12:15:54.753Z,14.41
2023-03-20T12:18:31.099Z,14.51
2023-03-20T12:21:15.919Z,14.63
2023-03-20T12:23:42.298Z,14.74
2023-03-20T12:26:11.764Z,14.70
2023-03-20T12:28:57.115Z,14.54
2023-03-20T12:31:32.273Z,14.32
2023-03-20T12:34:01.272Z,14.16
2023-03-20T12:36:31.431Z,13.96
2023-03-20T12:38:58.226Z,13.78
2023-03-20T12:41:44.897Z,13.65
2023-03-20T12:44:24.908Z,13.45
2023-03-20T12:47:03.313Z,13.22
2023-03-20T12:50:02.271Z,13.03
2023-03-20T12:52:42.780Z,12.89
2023-03-20T12:55:12.764Z,12.84
2023-03-20T12:58:08.748Z,12.77
2023-03-20T13:00:47.154Z,12.78
2023-03-20T13:03:22.433Z,12.85
2023-03-20T13:05:51.705Z,12.91
2023-03-20T13:08:36.682Z,12.91
2023-03-20T13:11:10.453Z,12.92
2023-03-20T13:13:51.090Z,12.94
2023-03-20T13:16:42.342Z,12.95
2023-03-20T13:19:37.476Z,12.93
2023-03-20T13:22:16.874Z,12.95
2023-03-20T13:24:54.227Z,12.97
2023-03-20T13:27:33.898Z,13.07
2023-03-20T13:30:29.827Z,13.19
2023-03-20T13:33:32.648Z,13.34
2023-03-20T13:36:08.763Z,13.53
2023-03-20T13:38:38.508Z,13.64
2023-03-20T13:41:07.349Z,13.78
2023-03-20T13:43:42.711Z,13.96
2023-03-20T13:46:11.508Z,14.08
2023-03-20T13:48:39.019Z,14.19
2023-03-20T13:51:24.366Z,14.19
2023-03-20T13:53:54.539Z,14.15
2023-03-20T13:56:23.931Z,14.07
2023-03-20T13:58:53.445Z,13.95
2023-03-20T14:01:29.438Z,13.82
2023-03-20T14:03:56.190Z,13.67
2023-03-20T14:06:22.524Z,13.52
2023-03-20T14:08:52.914Z,13.37
2023-03-20T14:11:20.270Z,13.22
2023-03-20T14:13:57.389Z,13.09
2023-03-20T14:16:27.122Z,12.98
2023-03-20T14:19:08.851Z,12.84
2023-03-20T14:21:36.019Z,12.76
2023-03-20T14:24:06.793Z,12.72
2023-03-20T14:26:39.480Z,12.65
2023-03-20T14:29:08.973Z,12.56
2023-03-20T14:31:36.041Z,12.52
2023-03-20T14:34:05.680Z,12.46
2023-03-20T14:36:52.321Z,12.42
2023-03-20T14:39:21.927Z,12.37
2023-03-20T14:42:08.482Z,12.31
2023-03-20T14:44:59.007Z,12.27
2023-03-20T14:47:31.246Z,12.25
2023-03-20T14:50:04.547Z,12.22
2023-03-20T14:52:33.921Z,12.18
2023-03-20T14:55:19.545Z,12.16
2023-03-20T14:57:56.165Z,12.11
2023-03-20T15:00:28.043Z,12.03
2023-03-20T15:03:17.505Z,11.96
2023-03-20T15:05:45.390Z,11.94
2023-03-20T15:08:23.862Z,11.94
2023-03-20T15:10:54.855Z,11.95
2023-03-20T15:13:22.040Z,11.96
2023-03-20T15:15:59.596Z,11.99
2023-03-20T15:18:26.755Z,12.00
2023-03-20T15:20:55.598Z,12.01
2023-03-20T15:23:22.274Z,12.04
2023-03-20T15:25:49.881Z,12.05
2023-03-20T15:28:19.892Z,12.03
2023-03-20T15:30:47.522Z,12.02
2023-03-20T15:33:16.474Z,12.02
2023-03-20T15:35:42.978Z,12.01
2023-03-20T15:38:13.624Z,12.01
2023-03-20T15:41:28.074Z,12.00
2023-03-20T15:44:20.982Z,11.99
2023-03-20T15:46:50.485Z,11.96
2023-03-20T15:49:20.472Z,11.93
2023-03-20T15:51:47.584Z,11.89
2023-03-20T15:54:15.945Z,11.85
2023-03-20T15:56:46.131Z,11.82
2023-03-20T15:59:13.797Z,11.80
2023-03-20T16:01:40.129Z,11.76
2023-03-20T16:04:06.540Z,11.73
2023-03-20T16:06:32.933Z,11.70
2023-03-20T16:09:01.167Z,11.66
2023-03-20T16:11:38.611Z,11.61
2023-03-20T16:14:06.026Z,11.56
2023-03-20T16:16:32.687Z,11.50
2023-03-20T16:18:59.423Z,11.44
2023-03-20T16:21:31.583Z,11.38
2023-03-20T16:23:58.673Z,11.34
2023-03-20T16:26:26.241Z,11.30
2023-03-20T16:28:54.294Z,11.25
2023-03-20T16:31:28.690Z,11.20
2023-03-20T16:33:59.152Z,11.14
2023-03-20T16:36:29.752Z,11.08
2023-03-20T16:39:16.522Z,11.02
2023-03-20T16:41:43.298Z,10.94
2023-03-20T16:44:20.383Z,10.87
2023-03-20T16:47:00.892Z,10.78
2023-03-20T16:49:27.240Z,10.70
2023-03-20T16:51:56.002Z,10.61
2023-03-20T16:54:26.119Z,10.55
2023-03-20T16:56:53.285Z,10.48
2023-03-20T16:59:19.879Z,10.40
2023-03-20T17:01:49.263Z,10.34
2023-03-20T17:04:20.675Z,10.28
2023-03-20T17:06:49.572Z,10.20
2023-03-20T17:09:21.622Z,10.15
2023-03-20T17:11:56.418Z,10.10
2023-03-20T17:14:22.797Z,10.04
2023-03-20T17:16:51.154Z,9.98
2023-03-20T17:19:18.807Z,9.92
2023-03-20T17:21:45.554Z,9.85
2023-03-20T17:24:12.532Z,9.78
2023-03-20T17:26:43.728Z,9.71
2023-03-20T17:29:10.760Z,9.63
2023-03-20T17:31:37.571Z,9.57
2023-03-20T17:34:04.149Z,9.50
2023-03-20T17:36:31.371Z,9.44
2023-03-20T17:38:58.754Z,9.37
2023-03-20T17:41:25.409Z,9.30
2023-03-20T17:43:51.781Z,9.25
2023-03-20T17:46:19.354Z,9.19
2023-03-20T17:48:47.414Z,9.15
2023-03-20T17:51:13.897Z,9.08
2023-03-20T17:53:40.242Z,9.01
2023-03-20T17:56:13.750Z,8.93
2023-03-20T17:58:40.616Z,8.90
2023-03-20T18:01:07.348Z,8.87
2023-03-20T18:03:34.387Z,8.85
2023-03-20T18:06:01.007Z,8.83
2023-03-20T18:08:27.496Z,8.83
2023-03-20T18:10:54.350Z,8.85
2023-03-20T18:13:21.688Z,8.86
2023-03-20T18:15:49.254Z,8.86
2023-03-20T18:18:15.793Z,8.88
2023-03-20T18:20:42.208Z,8.89
2023-03-20T18:23:08.736Z,8.90
2023-03-20T18:25:35.778Z,8.90
2023-03-20T18:28:03.798Z,8.89
2023-03-20T18:30:36.496Z,8.89
2023-03-20T18:33:03.935Z,8.89
2023-03-20T18:35:30.617Z,8.91
2023-03-20T18:37:57.889Z,8.92
2023-03-20T18:40:28.797Z,8.92
2023-03-20T18:42:55.970Z,8.92
2023-03-20T18:45:24.142Z,8.91
2023-03-20T18:47:51.631Z,8.88
2023-03-20T18:50:18.022Z,8.86
2023-03-20T18:52:45.372Z,8.82
2023-03-20T18:55:12.866Z,8.81
2023-03-20T18:57:41.760Z,8.80
2023-03-20T19:00:20.650Z,8.78
2023-03-20T19:02:47.619Z,8.77
2023-03-20T19:05:14.541Z,8.78
2023-03-20T19:07:41.179Z,8.80
2023-03-20T19:10:27.828Z,8.81
2023-03-20T19:12:56.786Z,8.81
2023-03-20T19:15:24.713Z,8.79
2023-03-20T19:17:51.233Z,8.77
2023-03-20T19:20:32.147Z,8.76
2023-03-20T19:22:58.553Z,8.75
2023-03-20T19:25:25.068Z,8.76
2023-03-20T19:27:51.527Z,8.78
2023-03-20T19:30:34.959Z,8.81
2023-03-20T19:33:03.603Z,8.83
2023-03-20T19:35:54.491Z,8.85
2023-03-20T19:38:19.713Z,8.83
2023-03-20T19:40:47.138Z,8.82
2023-03-20T19:43:13.524Z,8.82
2023-03-20T19:45:41.545Z,8.83
2023-03-20T19:48:12.581Z,8.86
2023-03-20T19:50:41.704Z,8.89
2023-03-20T19:53:11.008Z,8.92
2023-03-20T19:55:38.408Z,8.95
2023-03-20T19:58:05.317Z,8.98
2023-03-20T20:00:56.814Z,9.01
2023-03-20T20:03:20.440Z,9.05
2023-03-20T20:05:47.718Z,9.08
2023-03-20T20:08:28.266Z,9.10
2023-03-20T20:10:57.360Z,9.13
2023-03-20T20:13:27.766Z,9.15
2023-03-20T20:15:54.647Z,9.18
2023-03-20T20:18:23.062Z,9.19
2023-03-20T20:22:06.420Z,9.19
2023-03-20T20:23:43.652Z,9.19
2023-03-20T20:26:09.968Z,9.19
2023-03-20T20:28:36.308Z,9.18
2023-03-20T20:31:02.953Z,9.17
2023-03-20T20:33:29.387Z,9.15
2023-03-20T20:36:27.871Z,9.12
2023-03-20T20:38:50.740Z,9.09
2023-03-20T20:41:17.693Z,9.07
2023-03-20T20:46:31.529Z,9.03
2023-03-20T20:48:58.084Z,9.01
2023-03-20T20:51:24.404Z,9.00
2023-03-20T20:53:50.789Z,8.99
2023-03-20T20:56:17.439Z,8.99
2023-03-20T20:58:43.785Z,8.99
2023-03-20T21:01:10.125Z,9.00
2023-03-20T21:03:36.680Z,9.01
2023-03-20T21:06:04.413Z,9.02
2023-03-20T21:08:30.758Z,9.01
2023-03-20T21:10:57.527Z,9.00
2023-03-20T21:13:23.996Z,8.99
2023-03-20T21:15:57.087Z,9.00
2023-03-20T21:18:26.629Z,8.99
2023-03-20T21:20:53.088Z,8.98
2023-03-20T21:23:19.511Z,8.97
2023-03-20T21:25:47.838Z,8.97
2023-03-20T21:28:14.863Z,8.95
2023-03-20T21:30:49.856Z,8.94
2023-03-20T21:33:23.507Z,8.94
2023-03-20T21:35:50.767Z,8.93
2023-03-20T21:41:08.716Z,8.92
2023-03-20T21:43:35.049Z,8.91
2023-03-20T21:54:59.796Z,8.85
2023-03-20T22:02:43.537Z,8.83
2023-03-20T22:17:20.877Z,8.81
2023-03-20T22:22:42.580Z,8.75
2023-03-20T22:28:06.989Z,8.71
2023-03-20T22:42:06.833Z,8.63
2023-03-20T22:45:19.693Z,8.63
2023-03-20T22:47:34.355Z,8.62
2023-03-20T22:50:19.610Z,8.60
2023-03-20T22:52:49.422Z,8.58
2023-03-20T22:55:16.876Z,8.58
2023-03-20T22:57:53.052Z,8.56
2023-03-20T23:00:26.494Z,8.55
2023-03-20T23:02:54.960Z,8.52
2023-03-20T23:05:23.803Z,8.50
2023-03-20T23:07:50.095Z,8.49
2023-03-20T23:10:16.728Z,8.47
2023-03-20T23:12:44.273Z,8.45
2023-03-20T23:15:11.043Z,8.43
2023-03-20T23:17:37.348Z,8.40
2023-03-20T23:20:11.589Z,8.39
2023-03-20T23:22:38.451Z,8.38
2023-03-20T23:25:13.350Z,8.37
2023-03-20T23:27:43.063Z,8.35
2023-03-20T23:30:10.141Z,8.35
2023-03-20T23:32:37.699Z,8.33
2023-03-20T23:35:04.961Z,8.32
2023-03-20T23:37:31.601Z,8.31
2023-03-20T23:39:57.878Z,8.30
2023-03-20T23:42:30.695Z,8.29
2023-03-20T23:47:45.217Z,8.25
2023-03-20T23:50:20.693Z,8.23
2023-03-20T23:53:01.026Z,8.22
2023-03-20T23:55:30.237Z,8.22
2023-03-20T23:57:57.070Z,8.22
